Time;durP1;ratioP1;P1;durP2;ratioP2;P2;SDS_P1;SDS_P2;PMS_P1;PMS_P2;Temp;Humidity;BMP_temperature;BMP_pressure;BME280_temperature;BME280_humidity;BME280_pressure;Samples;Min_cycle;Max_cycle;Signal;HPM_P1;HPM_P2
2021/09/28 00:00:53;;;;;;;27.43;24.90;;;11.40;99.90;;;;;;5017349;28;20823;-69
2021/09/28 00:03:20;;;;;;;27.37;24.53;;;11.50;99.90;;;;;;5006661;28;20496;-69
2021/09/28 00:05:48;;;;;;;26.40;24.40;;;11.40;99.90;;;;;;5006561;28;20484;-68
2021/09/28 00:08:15;;;;;;;27.10;24.77;;;11.40;99.90;;;;;;5017907;28;20457;-68
2021/09/28 00:10:43;;;;;;;28.00;25.70;;;11.40;99.90;;;;;;5013192;28;20837;-68
2021/09/28 00:13:10;;;;;;;28.83;25.87;;;11.40;99.90;;;;;;5013202;28;21005;-68
2021/09/28 00:15:37;;;;;;;28.87;25.97;;;11.40;99.90;;;;;;5011235;28;20475;-68
2021/09/28 00:18:04;;;;;;;27.40;24.90;;;11.40;99.90;;;;;;5012923;28;20495;-67
2021/09/28 00:20:37;;;;;;;29.57;24.53;;;11.40;99.90;;;;;;5011539;28;21041;-68
2021/09/28 00:23:07;;;;;;;28.47;25.37;;;11.50;99.90;;;;;;5013069;28;20521;-67
2021/09/28 00:25:34;;;;;;;30.90;25.20;;;11.50;99.90;;;;;;5008663;28;21014;-69
2021/09/28 00:28:01;;;;;;;28.83;26.20;;;11.50;99.90;;;;;;5015832;28;20474;-68
2021/09/28 00:30:28;;;;;;;27.67;25.23;;;11.40;99.90;;;;;;5012638;28;20444;-68
2021/09/28 00:32:55;;;;;;;27.93;25.13;;;11.40;99.90;;;;;;5010226;28;20476;-67
2021/09/28 00:35:22;;;;;;;28.97;25.90;;;11.40;99.90;;;;;;5013905;28;20465;-68
2021/09/28 00:37:49;;;;;;;29.40;25.73;;;11.40;99.90;;;;;;5007829;28;20854;-67
2021/09/28 00:40:20;;;;;;;27.73;24.83;;;11.50;99.90;;;;;;5011517;28;20508;-68
2021/09/28 00:42:47;;;;;;;28.13;25.77;;;11.40;99.90;;;;;;5015523;28;20492;-68
2021/09/28 00:45:14;;;;;;;29.10;26.73;;;11.40;99.90;;;;;;5011983;28;20550;-68
2021/09/28 00:47:42;;;;;;;29.83;27.13;;;11.40;99.90;;;;;;5010164;28;20469;-68
2021/09/28 00:50:11;;;;;;;29.13;26.33;;;11.40;99.90;;;;;;5015697;28;20825;-67
2021/09/28 00:52:38;;;;;;;30.10;27.40;;;11.30;99.90;;;;;;5010788;28;20456;-68
2021/09/28 00:55:06;;;;;;;29.53;27.00;;;11.20;99.90;;;;;;5014327;28;20465;-68
2021/09/28 00:57:35;;;;;;;30.20;27.40;;;11.20;99.90;;;;;;5013917;28;20829;-68
2021/09/28 01:00:04;;;;;;;28.40;24.97;;;11.30;99.90;;;;;;5014472;28;20456;-68
2021/09/28 01:02:32;;;;;;;29.13;26.23;;;11.30;99.90;;;;;;5015259;28;20532;-68
2021/09/28 01:05:02;;;;;;;29.73;26.77;;;11.30;99.90;;;;;;5009617;28;20491;-68
2021/09/28 01:07:30;;;;;;;37.83;25.70;;;11.20;99.90;;;;;;5011688;28;20464;-68
2021/09/28 01:09:57;;;;;;;32.27;27.30;;;11.30;99.90;;;;;;5018895;28;22493;-68
2021/09/28 01:12:25;;;;;;;28.20;25.80;;;11.20;99.90;;;;;;5016094;27;20466;-68
2021/09/28 01:14:55;;;;;;;29.13;26.23;;;11.20;99.90;;;;;;5008097;28;20477;-70
2021/09/28 01:17:22;;;;;;;29.70;27.10;;;11.20;99.90;;;;;;5015232;28;20995;-68
2021/09/28 01:19:49;;;;;;;29.13;26.97;;;11.10;99.90;;;;;;5011483;28;20465;-68
2021/09/28 01:22:19;;;;;;;29.30;26.80;;;11.10;99.90;;;;;;5015035;28;20944;-70
2021/09/28 01:24:48;;;;;;;31.13;27.93;;;11.10;99.90;;;;;;5011476;28;20476;-68
2021/09/28 01:27:16;;;;;;;28.47;26.47;;;11.00;99.90;;;;;;5018499;28;20468;-68
2021/09/28 01:29:44;;;;;;;29.93;27.00;;;10.90;99.90;;;;;;5015129;28;20458;-70
2021/09/28 01:32:12;;;;;;;33.57;27.30;;;10.90;99.90;;;;;;5013597;28;20469;-67
2021/09/28 01:34:40;;;;;;;29.40;27.13;;;10.80;99.90;;;;;;5011531;28;20462;-70
2021/09/28 01:37:07;;;;;;;29.40;26.50;;;10.80;99.90;;;;;;5011268;28;20453;-70
2021/09/28 01:39:36;;;;;;;29.00;26.50;;;10.70;99.90;;;;;;5015715;28;20995;-70
2021/09/28 01:42:03;;;;;;;28.20;25.97;;;10.70;99.90;;;;;;5011707;28;20457;-68
2021/09/28 01:44:34;;;;;;;27.90;25.20;;;10.70;99.90;;;;;;5015245;28;20473;-68
2021/09/28 01:47:02;;;;;;;27.83;25.17;;;10.70;99.90;;;;;;5015253;28;20561;-68
2021/09/28 01:49:30;;;;;;;28.87;26.40;;;10.70;99.90;;;;;;5016373;28;20461;-67
2021/09/28 01:51:57;;;;;;;31.27;25.97;;;10.70;99.90;;;;;;5011123;28;20462;-69
2021/09/28 01:54:26;;;;;;;28.53;25.90;;;10.60;99.90;;;;;;5011925;28;20474;-67
2021/09/28 01:56:54;;;;;;;27.97;25.87;;;10.60;99.90;;;;;;5013283;28;20879;-68
2021/09/28 01:59:21;;;;;;;30.53;25.33;;;10.70;99.90;;;;;;5013102;28;20523;-68
2021/09/28 02:01:48;;;;;;;27.40;24.93;;;10.80;99.90;;;;;;5014022;28;20465;-67
2021/09/28 02:04:15;;;;;;;27.63;25.10;;;10.80;99.90;;;;;;5012755;28;20506;-68
2021/09/28 02:06:44;;;;;;;28.50;25.53;;;10.80;99.90;;;;;;5018654;28;20552;-68
2021/09/28 02:09:11;;;;;;;26.10;23.90;;;10.90;99.90;;;;;;5015256;28;20464;-67
2021/09/28 02:11:40;;;;;;;27.77;24.97;;;10.90;99.90;;;;;;5011904;28;20540;-68
2021/09/28 02:14:09;;;;;;;25.43;23.30;;;11.00;99.90;;;;;;5010005;28;20473;-69
2021/09/28 02:16:38;;;;;;;25.43;23.20;;;11.00;99.90;;;;;;5012611;28;20457;-70
2021/09/28 02:19:06;;;;;;;33.27;24.00;;;11.10;99.90;;;;;;5015256;28;20477;-70
2021/09/28 02:21:33;;;;;;;28.97;23.70;;;11.10;99.90;;;;;;5017192;28;20458;-68
2021/09/28 02:24:00;;;;;;;25.93;23.50;;;11.10;99.90;;;;;;5013972;28;20457;-68
2021/09/28 02:26:27;;;;;;;25.93;23.07;;;11.10;99.90;;;;;;5011543;28;20454;-68
2021/09/28 02:28:55;;;;;;;25.43;23.30;;;11.10;99.90;;;;;;5012751;28;20540;-68
2021/09/28 02:31:23;;;;;;;25.23;22.97;;;11.10;99.90;;;;;;5017137;28;20463;-69
2021/09/28 02:33:50;;;;;;;40.00;23.67;;;11.10;99.90;;;;;;5012034;28;20461;-70
2021/09/28 02:36:18;;;;;;;26.23;23.77;;;11.10;99.90;;;;;;5009076;28;20939;-67
2021/09/28 02:38:47;;;;;;;28.50;23.80;;;11.10;99.90;;;;;;5020845;28;20498;-67
2021/09/28 02:41:15;;;;;;;26.83;24.23;;;11.10;99.90;;;;;;5014780;28;20516;-67
2021/09/28 02:43:45;;;;;;;31.80;25.10;;;11.10;99.90;;;;;;5012145;28;20465;-67
2021/09/28 02:46:12;;;;;;;26.83;24.83;;;11.20;99.90;;;;;;5009561;28;20869;-67
2021/09/28 02:48:40;;;;;;;28.23;25.53;;;11.10;99.90;;;;;;5010354;28;20463;-68
2021/09/28 02:51:06;;;;;;;27.50;25.13;;;11.10;99.90;;;;;;5013328;28;20469;-68
2021/09/28 02:53:33;;;;;;;26.60;24.60;;;11.10;99.90;;;;;;5007333;28;20454;-68
2021/09/28 02:56:00;;;;;;;28.50;25.50;;;11.10;99.90;;;;;;5009132;28;20955;-67
2021/09/28 02:58:29;;;;;;;28.50;25.30;;;11.10;99.90;;;;;;5016812;28;20491;-68
2021/09/28 03:00:56;;;;;;;32.07;25.90;;;11.10;99.90;;;;;;5009378;28;20457;-68
2021/09/28 03:03:22;;;;;;;28.83;25.83;;;11.10;99.90;;;;;;5005108;28;20844;-69
2021/09/28 03:05:51;;;;;;;27.43;24.80;;;11.10;99.90;;;;;;5006651;28;20787;-67
2021/09/28 03:08:18;;;;;;;27.13;24.27;;;11.10;99.90;;;;;;5013056;28;20847;-68
2021/09/28 03:10:46;;;;;;;26.00;23.60;;;11.10;99.90;;;;;;5013338;28;20783;-66
2021/09/28 03:13:14;;;;;;;25.90;24.07;;;11.10;99.90;;;;;;5009547;28;20455;-67
2021/09/28 03:15:41;;;;;;;26.87;24.37;;;11.10;99.90;;;;;;5013871;28;20484;-70
2021/09/28 03:18:08;;;;;;;25.50;23.33;;;11.10;99.90;;;;;;5016922;28;21012;-70
2021/09/28 03:20:37;;;;;;;33.97;24.70;;;11.10;99.90;;;;;;5017122;28;20469;-68
2021/09/28 03:23:05;;;;;;;27.53;25.03;;;11.00;99.90;;;;;;5041486;27;20498;-68
2021/09/28 03:25:32;;;;;;;26.03;23.37;;;11.00;99.90;;;;;;5013478;28;20955;-70
2021/09/28 03:28:01;;;;;;;27.20;24.50;;;10.90;99.90;;;;;;5016840;28;20464;-69
2021/09/28 03:30:28;;;;;;;26.13;23.70;;;10.90;99.90;;;;;;5012448;28;20535;-67
2021/09/28 03:32:56;;;;;;;25.70;23.43;;;10.90;99.90;;;;;;5010303;28;20541;-67
2021/09/28 03:35:23;;;;;;;26.57;23.93;;;10.90;99.90;;;;;;5010248;28;20791;-68
2021/09/28 03:37:52;;;;;;;26.60;23.83;;;10.90;99.90;;;;;;5007250;28;20455;-69
2021/09/28 03:40:21;;;;;;;25.97;23.63;;;10.80;99.90;;;;;;5009325;28;20468;-68
2021/09/28 03:42:49;;;;;;;26.83;24.10;;;10.80;99.90;;;;;;5013878;28;20487;-67
2021/09/28 03:45:16;;;;;;;25.17;23.10;;;10.80;99.90;;;;;;5012482;28;20522;-68
2021/09/28 03:47:43;;;;;;;26.17;24.10;;;10.80;99.90;;;;;;5017387;28;20948;-68
2021/09/28 03:50:11;;;;;;;25.70;23.63;;;10.70;99.90;;;;;;5006502;28;20548;-70
2021/09/28 03:52:38;;;;;;;28.80;24.67;;;10.70;99.90;;;;;;5013161;28;20488;-68
2021/09/28 03:55:06;;;;;;;26.23;23.43;;;10.70;99.90;;;;;;5005574;28;20465;-68
2021/09/28 03:57:36;;;;;;;24.60;22.43;;;10.70;99.90;;;;;;5010648;28;20452;-67
2021/09/28 04:00:05;;;;;;;24.13;22.27;;;10.70;99.90;;;;;;5014200;28;20583;-68
2021/09/28 04:02:32;;;;;;;24.23;21.70;;;10.80;99.90;;;;;;5008972;28;20868;-68
2021/09/28 04:05:00;;;;;;;25.40;23.03;;;10.80;99.90;;;;;;5011361;28;20490;-68
2021/09/28 04:07:27;;;;;;;25.07;22.80;;;10.80;99.90;;;;;;5008205;28;20468;-70
2021/09/28 04:09:54;;;;;;;24.60;21.97;;;10.80;99.90;;;;;;5005311;28;20913;-70
2021/09/28 04:12:23;;;;;;;24.30;21.93;;;10.80;99.90;;;;;;5012684;28;20465;-68
2021/09/28 04:14:53;;;;;;;24.03;21.77;;;10.80;99.90;;;;;;5007221;28;20881;-68
2021/09/28 04:17:20;;;;;;;23.93;21.30;;;10.80;99.90;;;;;;5010012;28;20453;-69
2021/09/28 04:19:49;;;;;;;24.43;21.93;;;10.80;99.90;;;;;;5014656;28;20839;-68
2021/09/28 04:22:15;;;;;;;24.20;21.87;;;10.80;99.90;;;;;;5007695;28;20463;-68
2021/09/28 04:24:42;;;;;;;24.50;22.27;;;10.80;99.90;;;;;;5020619;28;20926;-68
2021/09/28 04:27:10;;;;;;;23.83;21.87;;;10.70;99.90;;;;;;5014550;28;20473;-67
2021/09/28 04:29:38;;;;;;;26.13;23.43;;;10.70;99.90;;;;;;5013740;28;20956;-68
2021/09/28 04:32:07;;;;;;;26.77;24.27;;;10.60;99.90;;;;;;5013244;28;20799;-68
2021/09/28 04:34:34;;;;;;;25.77;23.63;;;10.50;99.90;;;;;;5015655;27;20466;-68
2021/09/28 04:37:01;;;;;;;26.87;24.60;;;10.40;99.90;;;;;;5016063;28;20559;-68
2021/09/28 04:39:28;;;;;;;26.13;24.13;;;10.40;99.90;;;;;;5012094;28;20497;-68
2021/09/28 04:41:56;;;;;;;27.13;25.00;;;10.30;99.90;;;;;;5011811;28;20472;-68
2021/09/28 04:44:23;;;;;;;27.20;24.83;;;10.20;99.90;;;;;;5021607;28;21142;-68
2021/09/28 04:46:49;;;;;;;28.10;25.90;;;10.10;99.90;;;;;;5013186;28;20466;-67
2021/09/28 04:49:18;;;;;;;28.43;26.03;;;9.90;99.90;;;;;;5014403;28;20464;-69
2021/09/28 04:51:45;;;;;;;27.63;25.50;;;9.80;99.90;;;;;;5016662;28;20460;-67
2021/09/28 04:54:12;;;;;;;29.57;26.97;;;9.70;99.90;;;;;;5018660;28;20459;-67
2021/09/28 04:56:39;;;;;;;28.80;26.60;;;9.60;99.90;;;;;;5012717;28;20468;-68
2021/09/28 04:59:06;;;;;;;29.10;26.57;;;9.60;99.90;;;;;;5010897;28;20495;-68
2021/09/28 05:01:33;;;;;;;29.23;26.57;;;9.50;99.90;;;;;;5014960;28;20809;-68
2021/09/28 05:04:00;;;;;;;27.83;25.50;;;9.50;99.90;;;;;;5008467;28;20488;-67
2021/09/28 05:06:28;;;;;;;28.67;26.33;;;9.50;99.90;;;;;;5013776;28;20483;-68
2021/09/28 05:08:55;;;;;;;29.13;26.20;;;9.50;99.90;;;;;;5012971;28;20529;-68
2021/09/28 05:11:22;;;;;;;28.77;26.43;;;9.50;99.90;;;;;;5020035;28;20461;-67
2021/09/28 05:13:49;;;;;;;28.43;26.00;;;9.40;99.90;;;;;;5008158;28;20807;-69
2021/09/28 05:16:17;;;;;;;29.00;26.00;;;9.40;99.90;;;;;;5008735;28;20456;-68
2021/09/28 05:18:44;;;;;;;29.30;25.90;;;9.40;99.90;;;;;;5015046;27;21012;-67
2021/09/28 05:21:11;;;;;;;28.63;26.13;;;9.40;99.90;;;;;;5017185;28;20454;-69
2021/09/28 05:23:45;;;;;;;29.47;27.20;;;9.30;99.90;;;;;;5045674;27;20505;-67
2021/09/28 05:26:12;;;;;;;29.83;26.77;;;9.30;99.90;;;;;;5010889;28;20474;-68
2021/09/28 05:28:40;;;;;;;31.73;27.80;;;9.20;99.90;;;;;;5020165;28;21034;-69
2021/09/28 05:31:07;;;;;;;29.67;27.27;;;9.20;99.90;;;;;;5019672;28;20456;-67
2021/09/28 05:33:34;;;;;;;29.87;27.17;;;9.20;99.90;;;;;;5015814;28;20465;-67
2021/09/28 05:36:01;;;;;;;28.30;25.67;;;9.20;99.90;;;;;;5008576;28;20551;-68
2021/09/28 05:38:28;;;;;;;28.47;26.17;;;9.30;99.90;;;;;;5019299;28;20465;-68
2021/09/28 05:40:58;;;;;;;29.77;26.53;;;9.30;99.90;;;;;;5010487;28;20461;-67
2021/09/28 05:43:25;;;;;;;29.13;26.53;;;9.30;99.90;;;;;;5016566;28;20458;-67
2021/09/28 05:45:53;;;;;;;29.30;26.40;;;9.30;99.90;;;;;;5016541;28;20459;-67
2021/09/28 05:48:20;;;;;;;32.93;27.50;;;9.30;99.90;;;;;;5016260;28;20468;-68
2021/09/28 05:50:48;;;;;;;28.30;25.80;;;9.30;99.90;;;;;;5012208;28;20550;-68
2021/09/28 05:53:15;;;;;;;30.00;26.90;;;9.40;99.90;;;;;;5009420;28;20464;-67
2021/09/28 05:55:43;;;;;;;29.67;25.97;;;9.40;99.90;;;;;;5008646;28;20832;-68
2021/09/28 05:58:12;;;;;;;29.63;26.67;;;9.40;99.90;;;;;;5010676;28;20471;-69
2021/09/28 06:00:39;;;;;;;29.13;26.40;;;9.50;99.90;;;;;;5009230;28;20982;-68
2021/09/28 06:03:07;;;;;;;33.50;26.43;;;9.50;99.90;;;;;;5011981;28;20882;-68
2021/09/28 06:05:35;;;;;;;29.13;26.43;;;9.60;99.90;;;;;;5016512;28;20458;-68
2021/09/28 06:08:02;;;;;;;28.93;25.10;;;9.70;99.90;;;;;;5016691;28;20467;-69
2021/09/28 06:10:29;;;;;;;29.13;26.57;;;9.70;99.90;;;;;;5016787;27;20465;-68
2021/09/28 06:12:57;;;;;;;29.00;26.33;;;9.80;99.90;;;;;;5011462;28;20774;-68
2021/09/28 06:15:26;;;;;;;29.23;26.00;;;9.80;99.90;;;;;;5015107;28;20494;-69
2021/09/28 06:17:53;;;;;;;29.70;25.60;;;9.80;99.90;;;;;;5014657;28;20544;-68
2021/09/28 06:20:20;;;;;;;29.50;26.60;;;9.80;99.90;;;;;;5014026;28;20500;-68
2021/09/28 06:22:47;;;;;;;27.97;25.67;;;9.90;99.90;;;;;;5008148;27;20934;-69
2021/09/28 06:25:15;;;;;;;31.60;25.07;;;10.00;99.90;;;;;;5015659;28;20464;-67
2021/09/28 06:27:42;;;;;;;28.37;24.93;;;10.10;99.90;;;;;;5018393;28;20858;-68
2021/09/28 06:30:10;;;;;;;27.20;25.03;;;10.10;99.90;;;;;;5016329;28;20457;-67
2021/09/28 06:32:40;;;;;;;27.93;25.20;;;10.20;99.90;;;;;;5015816;28;20793;-68
2021/09/28 06:35:08;;;;;;;28.83;26.40;;;10.20;99.90;;;;;;5010428;27;20825;-68
2021/09/28 06:37:35;;;;;;;27.03;24.80;;;10.30;99.90;;;;;;5013558;28;20450;-68
2021/09/28 06:40:04;;;;;;;28.27;25.97;;;10.30;99.90;;;;;;5010655;28;20485;-67
2021/09/28 06:42:31;;;;;;;28.33;26.00;;;10.40;99.90;;;;;;5011080;28;20755;-69
2021/09/28 06:44:58;;;;;;;29.30;26.50;;;10.50;99.90;;;;;;5014677;28;20813;-67
2021/09/28 06:47:25;;;;;;;27.67;25.63;;;10.60;99.90;;;;;;5004488;28;20459;-68
2021/09/28 06:49:55;;;;;;;26.80;24.57;;;10.70;99.90;;;;;;5010804;28;20492;-68
2021/09/28 06:52:22;;;;;;;26.13;24.00;;;10.80;99.90;;;;;;5010550;28;20479;-68
2021/09/28 06:54:49;;;;;;;28.77;25.97;;;10.80;99.90;;;;;;5008501;28;20468;-70
2021/09/28 06:57:16;;;;;;;27.07;24.77;;;10.90;99.90;;;;;;5012876;28;20458;-69
2021/09/28 06:59:43;;;;;;;28.53;26.33;;;10.90;99.90;;;;;;5008284;28;21004;-69
2021/09/28 07:02:10;;;;;;;32.23;26.50;;;11.00;99.90;;;;;;5010747;28;20627;-68
2021/09/28 07:04:37;;;;;;;28.13;25.40;;;11.10;99.90;;;;;;5006941;28;20512;-68
2021/09/28 07:07:05;;;;;;;28.37;25.60;;;11.20;99.90;;;;;;5009283;28;21033;-67
2021/09/28 07:09:33;;;;;;;27.73;25.07;;;11.40;99.90;;;;;;5010834;28;20468;-67
2021/09/28 07:12:00;;;;;;;26.30;24.30;;;11.50;99.90;;;;;;5012320;28;20457;-68
2021/09/28 07:14:29;;;;;;;26.30;23.60;;;11.70;99.90;;;;;;5008167;28;20480;-68
2021/09/28 07:16:56;;;;;;;24.43;22.43;;;11.70;99.90;;;;;;5013284;28;20925;-67
2021/09/28 07:19:23;;;;;;;25.57;23.57;;;11.80;99.90;;;;;;5013339;28;21009;-68
2021/09/28 07:21:50;;;;;;;23.30;20.80;;;11.90;99.90;;;;;;5015747;27;20457;-68
2021/09/28 07:24:19;;;;;;;22.80;20.97;;;12.10;99.90;;;;;;5004838;28;20466;-68
2021/09/28 07:26:46;;;;;;;21.23;19.60;;;12.20;99.90;;;;;;5014233;28;20795;-68
2021/09/28 07:29:13;;;;;;;22.57;20.97;;;12.30;99.90;;;;;;5017407;28;20468;-68
2021/09/28 07:31:41;;;;;;;20.57;18.87;;;12.30;99.90;;;;;;5016391;28;20461;-68
2021/09/28 07:34:10;;;;;;;22.07;19.70;;;12.40;99.90;;;;;;5010330;28;20948;-67
2021/09/28 07:36:37;;;;;;;22.47;20.73;;;12.40;99.90;;;;;;5011198;28;20466;-68
2021/09/28 07:39:05;;;;;;;20.80;19.10;;;12.50;99.90;;;;;;5018417;28;20539;-68
2021/09/28 07:41:34;;;;;;;23.00;21.10;;;12.50;99.90;;;;;;5014312;28;20473;-70
2021/09/28 07:44:01;;;;;;;21.27;19.03;;;12.50;99.90;;;;;;5009374;28;20461;-68
2021/09/28 07:46:28;;;;;;;23.73;20.23;;;12.60;99.90;;;;;;5009509;28;20465;-69
2021/09/28 07:48:56;;;;;;;26.90;19.60;;;12.70;99.90;;;;;;5010182;28;20461;-70
2021/09/28 07:51:23;;;;;;;20.93;19.33;;;12.80;99.90;;;;;;5010555;28;20457;-68
2021/09/28 07:53:52;;;;;;;20.50;18.30;;;12.90;99.90;;;;;;5014044;28;20503;-70
2021/09/28 07:56:20;;;;;;;20.63;18.60;;;13.00;99.90;;;;;;5009385;28;20453;-68
2021/09/28 07:58:48;;;;;;;18.73;17.17;;;13.10;99.90;;;;;;5011980;28;20504;-68
2021/09/28 08:01:15;;;;;;;18.60;17.13;;;13.30;99.90;;;;;;5011346;28;20492;-68
2021/09/28 08:03:43;;;;;;;18.17;16.77;;;13.30;99.90;;;;;;5008239;28;20542;-70
2021/09/28 08:06:10;;;;;;;18.27;16.73;;;13.40;99.90;;;;;;5010088;27;20464;-68
2021/09/28 08:08:37;;;;;;;19.27;17.80;;;13.50;99.90;;;;;;5016671;28;20510;-67
2021/09/28 08:11:07;;;;;;;17.13;15.83;;;13.60;99.90;;;;;;5018025;27;20552;-67
2021/09/28 08:13:36;;;;;;;16.30;15.00;;;13.70;99.90;;;;;;5015292;28;20456;-67
2021/09/28 08:16:04;;;;;;;16.90;15.47;;;13.70;99.90;;;;;;5020882;28;20474;-68
2021/09/28 08:18:31;;;;;;;19.17;17.40;;;13.80;99.90;;;;;;5017103;28;20459;-68
2021/09/28 08:20:59;;;;;;;18.77;16.23;;;13.90;99.90;;;;;;5018066;28;20488;-69
2021/09/28 08:23:26;;;;;;;18.90;17.00;;;14.00;99.90;;;;;;5016626;28;20457;-68
2021/09/28 08:29:09;;;;;;;18.97;17.17;;;14.10;99.90;;;;;;5014587;28;20568;-68
2021/09/28 08:31:36;;;;;;;17.70;16.40;;;14.30;99.90;;;;;;5014976;28;20448;-70
2021/09/28 08:34:04;;;;;;;19.33;17.17;;;14.40;99.90;;;;;;5014330;28;20466;-67
2021/09/28 08:36:31;;;;;;;18.50;16.80;;;14.50;99.90;;;;;;5007636;28;20488;-69
2021/09/28 08:38:59;;;;;;;17.73;16.53;;;14.60;99.90;;;;;;5014537;28;20468;-69
2021/09/28 08:41:27;;;;;;;17.40;16.07;;;14.80;99.90;;;;;;5012501;28;20492;-68
2021/09/28 08:43:55;;;;;;;22.37;16.87;;;14.90;99.90;;;;;;5010749;28;20510;-68
2021/09/28 08:46:22;;;;;;;19.00;17.20;;;15.10;99.90;;;;;;5012885;28;20457;-68
2021/09/28 08:48:50;;;;;;;18.80;17.23;;;15.20;99.90;;;;;;5011976;28;20458;-68
2021/09/28 08:51:17;;;;;;;18.13;16.50;;;15.30;99.90;;;;;;5020138;28;20465;-68
2021/09/28 08:53:48;;;;;;;18.50;16.90;;;15.50;99.90;;;;;;5016170;28;20465;-70
2021/09/28 08:56:17;;;;;;;19.33;17.00;;;15.50;99.90;;;;;;5014621;28;20824;-68
2021/09/28 08:58:56;;;;;;;17.73;16.30;;;15.60;99.90;;;;;;5014428;28;20526;-67
2021/09/28 09:01:24;;;;;;;17.73;16.43;;;15.80;99.90;;;;;;5015220;28;20485;-68
2021/09/28 09:03:52;;;;;;;18.47;16.73;;;15.90;99.90;;;;;;5012707;28;20489;-69
2021/09/28 09:06:32;;;;;;;23.80;17.23;;;16.10;99.90;;;;;;5012964;28;20461;-68
2021/09/28 09:09:02;;;;;;;18.53;16.70;;;16.30;99.90;;;;;;5016851;28;21014;-68
2021/09/28 09:11:36;;;;;;;17.87;16.47;;;16.50;99.90;;;;;;5010379;28;20546;-68
2021/09/28 09:14:15;;;;;;;17.83;16.33;;;16.60;99.90;;;;;;5010825;28;20480;-68
2021/09/28 09:16:42;;;;;;;18.93;16.90;;;16.80;99.90;;;;;;5009298;28;20587;-67
2021/09/28 09:19:17;;;;;;;18.10;16.63;;;16.90;99.90;;;;;;5012747;28;20462;-68
2021/09/28 09:21:49;;;;;;;18.53;17.00;;;16.80;99.90;;;;;;5015321;28;20492;-69
2021/09/28 09:24:42;;;;;;;18.63;17.47;;;17.10;99.90;;;;;;5010168;28;20969;-70
2021/09/28 09:27:10;;;;;;;18.13;16.33;;;17.30;99.90;;;;;;5014838;28;20446;-69
2021/09/28 09:29:36;;;;;;;18.20;16.57;;;17.50;99.90;;;;;;5014419;28;20461;-70
2021/09/28 09:32:03;;;;;;;18.47;16.70;;;17.60;99.90;;;;;;5012540;28;20472;-69
2021/09/28 09:34:32;;;;;;;17.30;15.60;;;17.80;99.90;;;;;;5012222;28;20469;-68
2021/09/28 09:37:02;;;;;;;17.07;15.50;;;17.40;99.90;;;;;;5015059;28;20461;-68
2021/09/28 09:39:44;;;;;;;17.27;15.97;;;18.00;99.90;;;;;;5016516;28;20576;-68
2021/09/28 09:42:11;;;;;;;17.37;15.60;;;18.50;99.90;;;;;;5018090;28;20461;-71
2021/09/28 09:44:41;;;;;;;16.67;15.03;;;18.90;99.90;;;;;;5011828;28;20462;-69
2021/09/28 09:47:24;;;;;;;17.13;15.43;;;19.30;99.90;;;;;;5015211;28;20544;-68
2021/09/28 09:50:11;;;;;;;15.93;15.03;;;19.80;99.90;;;;;;5013739;28;20469;-70
2021/09/28 09:52:39;;;;;;;17.13;15.33;;;19.80;99.90;;;;;;5010885;28;20464;-72
2021/09/28 09:55:24;;;;;;;16.57;15.30;;;19.80;99.90;;;;;;5012903;28;20458;-69
2021/09/28 09:57:51;;;;;;;16.63;14.93;;;20.30;99.90;;;;;;5017398;28;20460;-70
2021/09/28 10:00:18;;;;;;;22.07;15.60;;;20.90;99.90;;;;;;5023140;28;20477;-69
2021/09/28 10:02:46;;;;;;;17.63;15.37;;;20.80;99.90;;;;;;5010195;28;20493;-70
2021/09/28 10:05:15;;;;;;;16.00;14.67;;;20.80;99.90;;;;;;5012318;28;20828;-69
2021/09/28 10:07:42;;;;;;;16.80;15.40;;;20.90;99.90;;;;;;5016572;28;20515;-69
2021/09/28 10:10:14;;;;;;;15.87;14.47;;;20.60;99.90;;;;;;5012839;28;20823;-69
2021/09/28 10:12:41;;;;;;;16.00;15.00;;;20.50;99.90;;;;;;5009005;28;20440;-70
2021/09/28 10:15:10;;;;;;;16.13;14.83;;;20.30;99.90;;;;;;5012098;28;20484;-71
2021/09/28 10:17:40;;;;;;;18.77;15.30;;;20.20;99.90;;;;;;5011383;28;20465;-71
2021/09/28 10:20:10;;;;;;;16.10;14.93;;;20.50;99.90;;;;;;5013050;28;20466;-68
2021/09/28 10:22:50;;;;;;;17.63;16.03;;;20.70;99.90;;;;;;5017209;28;20460;-68
2021/09/28 10:25:38;;;;;;;16.70;15.40;;;20.60;99.90;;;;;;5013339;28;20453;-70
2021/09/28 10:28:31;;;;;;;16.27;15.23;;;20.70;99.90;;;;;;5014401;28;20477;-69
2021/09/28 10:30:58;;;;;;;16.90;15.27;;;20.10;99.90;;;;;;5019344;28;20463;-70
2021/09/28 10:33:28;;;;;;;15.77;14.77;;;20.30;99.90;;;;;;5014533;28;21017;-70
2021/09/28 10:35:57;;;;;;;16.43;15.23;;;20.20;99.90;;;;;;5013379;28;20588;-71
2021/09/28 10:38:58;;;;;;;17.27;16.00;;;20.40;99.90;;;;;;5006713;28;20467;-70
2021/09/28 10:41:46;;;;;;;15.60;14.60;;;20.80;99.90;;;;;;5011840;28;20577;-71
2021/09/28 10:44:50;;;;;;;16.50;15.30;;;20.60;99.90;;;;;;5019176;28;20457;-68
2021/09/28 10:47:47;;;;;;;16.50;15.10;;;21.00;99.90;;;;;;5015945;28;20526;-69
2021/09/28 10:50:26;;;;;;;16.80;15.43;;;21.00;99.90;;;;;;5008517;28;20468;-72
2021/09/28 10:52:56;;;;;;;16.60;15.10;;;21.30;99.90;;;;;;5014141;28;20560;-69
2021/09/28 10:55:47;;;;;;;17.30;15.80;;;21.60;99.90;;;;;;5013362;28;20462;-72
2021/09/28 10:58:22;;;;;;;16.60;15.40;;;21.80;99.90;;;;;;5009595;28;20462;-69
2021/09/28 11:01:09;;;;;;;18.07;16.13;;;22.20;99.90;;;;;;5014348;28;20590;-69
2021/09/28 11:03:58;;;;;;;16.43;15.07;;;22.10;99.90;;;;;;5006788;28;20480;-70
2021/09/28 11:07:01;;;;;;;16.47;15.23;;;21.30;99.90;;;;;;5014665;28;20539;-69
2021/09/28 11:09:49;;;;;;;16.40;15.17;;;21.60;99.90;;;;;;5010547;28;20453;-69
2021/09/28 11:12:23;;;;;;;17.00;15.60;;;21.90;99.90;;;;;;5013456;28;20861;-69
2021/09/28 11:14:50;;;;;;;17.33;15.70;;;22.40;99.90;;;;;;5010927;28;20478;-69
2021/09/28 11:17:19;;;;;;;16.93;15.30;;;22.50;99.90;;;;;;5017123;28;20461;-69
2021/09/28 11:19:46;;;;;;;15.97;14.90;;;22.50;99.90;;;;;;5009812;28;20542;-72
2021/09/28 11:22:23;;;;;;;16.23;15.23;;;22.10;99.90;;;;;;5016436;28;20535;-71
2021/09/28 11:24:51;;;;;;;16.40;14.83;;;22.40;99.90;;;;;;5007752;28;20461;-71
2021/09/28 11:27:19;;;;;;;15.57;14.33;;;22.10;99.90;;;;;;5007818;28;20462;-68
2021/09/28 11:29:45;;;;;;;15.17;14.07;;;22.10;99.90;;;;;;5010726;28;20461;-71
2021/09/28 11:32:13;;;;;;;16.90;14.33;;;22.20;99.90;;;;;;5010037;28;20983;-68
2021/09/28 11:34:42;;;;;;;15.13;13.83;;;21.90;99.90;;;;;;5009805;28;20932;-72
2021/09/28 11:37:09;;;;;;;15.73;14.17;;;22.20;99.90;;;;;;5012827;28;20518;-69
2021/09/28 11:39:43;;;;;;;17.00;14.83;;;22.30;99.90;;;;;;5014517;28;20464;-72
2021/09/28 11:42:12;;;;;;;16.17;14.70;;;22.50;99.90;;;;;;5009572;28;20530;-69
2021/09/28 11:44:48;;;;;;;16.13;14.90;;;22.60;99.90;;;;;;5012497;28;20461;-69
2021/09/28 11:47:21;;;;;;;15.37;14.37;;;22.70;99.90;;;;;;5018121;28;20461;-68
2021/09/28 11:49:50;;;;;;;15.37;14.47;;;23.00;99.90;;;;;;5006748;28;20815;-68
2021/09/28 11:52:18;;;;;;;16.07;14.97;;;23.20;99.90;;;;;;5013966;28;20468;-69
2021/09/28 11:54:47;;;;;;;16.77;15.57;;;22.90;99.90;;;;;;5009059;28;20460;-68
2021/09/28 11:57:15;;;;;;;16.27;15.17;;;23.20;99.90;;;;;;5012806;28;20495;-70
2021/09/28 11:59:44;;;;;;;14.57;13.60;;;22.80;99.90;;;;;;5008763;28;20457;-68
2021/09/28 12:02:13;;;;;;;15.60;14.07;;;23.20;99.90;;;;;;5018358;28;20492;-68
2021/09/28 12:10:41;;;;;;;16.23;14.70;;;23.60;99.90;;;;;;5004642;28;20813;-68
2021/09/28 12:13:19;;;;;;;17.17;15.13;;;23.80;99.90;;;;;;5007618;28;20464;-68
2021/09/28 12:16:06;;;;;;;16.27;14.90;;;23.80;99.90;;;;;;5011149;28;20487;-68
2021/09/28 12:18:33;;;;;;;16.27;15.10;;;23.90;99.90;;;;;;5015095;28;20464;-68
2021/09/28 12:21:19;;;;;;;16.53;14.73;;;24.20;99.90;;;;;;5017947;28;20484;-70
2021/09/28 12:23:47;;;;;;;16.50;15.30;;;24.00;99.90;;;;;;5012784;28;20460;-68
2021/09/28 12:26:28;;;;;;;15.63;14.60;;;24.50;99.90;;;;;;5012619;28;20488;-68
2021/09/28 12:28:57;;;;;;;16.77;15.33;;;24.30;99.40;;;;;;5008669;28;20465;-69
2021/09/28 12:31:38;;;;;;;16.73;15.60;;;24.20;98.90;;;;;;5010991;28;20469;-71
2021/09/28 12:34:05;;;;;;;15.90;14.50;;;24.40;98.80;;;;;;5012806;28;20461;-69
2021/09/28 12:36:32;;;;;;;16.93;15.77;;;24.40;98.30;;;;;;5011290;28;20477;-68
2021/09/28 12:39:26;;;;;;;16.10;14.90;;;24.70;98.10;;;;;;5017293;28;20457;-69
2021/09/28 12:42:02;;;;;;;16.87;15.43;;;24.40;99.90;;;;;;5030309;28;20503;-69
2021/09/28 12:44:31;;;;;;;16.70;15.20;;;24.20;99.30;;;;;;5010914;28;20464;-69
2021/09/28 12:47:00;;;;;;;16.27;14.83;;;24.10;99.00;;;;;;5013189;28;20458;-70
2021/09/28 12:49:28;;;;;;;16.33;15.23;;;24.10;99.60;;;;;;5020330;28;20464;-69